Time;durP1;ratioP1;P1;durP2;ratioP2;P2;SDS_P1;SDS_P2;PMS_P1;PMS_P2;Temp;Humidity;BMP_temperature;BMP_pressure;BME280_temperature;BME280_humidity;BME280_pressure;Samples;Min_cycle;Max_cycle;Signal;HPM_P1;HPM_P2
2022/06/08 00:00:18;;;;;;;7.80;7.00;;;;;;;14.54;71.49;100684.38;5059999;28;20395;-71
2022/06/08 00:02:46;;;;;;;7.57;6.87;;;;;;;14.60;71.01;100682.59;5060447;28;20391;-71
2022/06/08 00:05:11;;;;;;;9.30;7.07;;;;;;;14.53;71.40;100675.66;5060426;28;20730;-70
2022/06/08 00:07:37;;;;;;;9.73;7.53;;;;;;;14.63;70.54;100679.97;5060416;28;20406;-70
2022/06/08 00:10:04;;;;;;;9.53;7.87;;;;;;;14.42;71.96;100673.13;5060874;28;20181;-70
2022/06/08 00:12:30;;;;;;;9.30;7.70;;;;;;;14.49;71.43;100680.03;5060218;28;20213;-71
2022/06/08 00:14:55;;;;;;;12.07;7.87;;;;;;;14.17;72.12;100674.13;5060288;28;20576;-71
2022/06/08 00:17:21;;;;;;;14.00;8.20;;;;;;;14.51;71.23;100672.16;5059335;28;20477;-70
2022/06/08 00:19:47;;;;;;;9.50;7.70;;;;;;;14.47;71.86;100671.31;5060300;28;20173;-69
2022/06/08 00:22:12;;;;;;;10.70;7.63;;;;;;;14.30;71.61;100662.69;5060289;28;20166;-68
2022/06/08 00:24:38;;;;;;;8.87;7.67;;;;;;;14.43;72.02;100669.59;5059280;28;20223;-70
2022/06/08 00:27:04;;;;;;;8.70;7.90;;;;;;;14.53;71.65;100664.28;5060105;28;20263;-70
2022/06/08 00:29:30;;;;;;;10.17;8.13;;;;;;;14.35;71.90;100666.16;5060304;28;20574;-70
2022/06/08 00:31:56;;;;;;;8.63;7.50;;;;;;;14.36;72.30;100662.66;5060101;28;20422;-70
2022/06/08 00:34:21;;;;;;;10.80;8.57;;;;;;;14.34;72.03;100648.66;5059761;28;20227;-71
2022/06/08 00:36:47;;;;;;;9.73;8.33;;;;;;;14.27;72.12;100647.84;5060284;28;20169;-69
2022/06/08 00:39:12;;;;;;;9.53;8.63;;;;;;;14.19;72.72;100648.78;5059800;28;20177;-70
2022/06/08 00:41:48;;;;;;;11.63;8.57;;;;;;;14.19;72.32;100654.03;5059780;28;20181;-70
2022/06/08 00:44:24;;;;;;;8.57;7.80;;;;;;;14.14;72.41;100652.31;5058942;28;20178;-70
2022/06/08 00:46:51;;;;;;;8.80;7.97;;;;;;;14.13;72.77;100654.94;5058849;28;20462;-69
2022/06/08 00:49:24;;;;;;;11.07;8.87;;;;;;;14.13;72.50;100657.56;5058961;28;20394;-70
2022/06/08 00:51:50;;;;;;;11.40;8.87;;;;;;;14.11;72.95;100652.34;5059057;28;20386;-70
2022/06/08 00:54:21;;;;;;;10.43;9.33;;;;;;;14.12;72.81;100653.22;5059064;28;20683;-70
2022/06/08 00:56:51;;;;;;;10.40;9.13;;;;;;;14.28;72.72;100646.09;5058954;28;20177;-70
2022/06/08 00:59:17;;;;;;;9.53;8.67;;;;;;;14.25;72.06;100641.75;5059058;28;20802;-70
2022/06/08 01:01:43;;;;;;;13.00;9.10;;;;;;;14.10;72.72;100640.13;5059412;28;20423;-70
2022/06/08 01:04:14;;;;;;;9.50;8.50;;;;;;;14.21;72.75;100634.78;5059278;28;20424;-70
2022/06/08 01:06:41;;;;;;;10.90;9.23;;;;;;;14.21;72.67;100640.03;5059808;28;20169;-70
2022/06/08 01:09:15;;;;;;;13.23;9.73;;;;;;;14.03;73.25;100643.66;5059565;28;20438;-69
2022/06/08 01:11:43;;;;;;;10.63;8.83;;;;;;;14.06;73.28;100648.88;5058632;28;20828;-70
2022/06/08 01:14:11;;;;;;;14.90;9.43;;;;;;;14.13;72.65;100641.84;5058811;28;20442;-70
2022/06/08 01:16:39;;;;;;;10.50;9.00;;;;;;;13.97;73.19;100644.53;5058933;28;20462;-69
2022/06/08 01:19:06;;;;;;;12.37;10.30;;;;;;;14.09;72.32;100642.75;5059827;28;20403;-70
2022/06/08 01:21:32;;;;;;;13.20;9.50;;;;;;;14.01;73.27;100645.41;5059166;28;20383;-70
2022/06/08 01:24:01;;;;;;;18.10;10.03;;;;;;;14.00;73.62;100645.41;5058984;28;20395;-70
2022/06/08 01:26:57;;;;;;;15.30;10.20;;;;;;;13.93;73.66;100644.59;5059484;28;20550;-70
2022/06/08 01:29:29;;;;;;;15.67;10.60;;;;;;;13.99;73.21;100655.03;5058916;28;20418;-70
2022/06/08 01:32:23;;;;;;;10.87;9.73;;;;;;;14.01;73.29;100648.03;5058634;28;20773;-70
2022/06/08 01:35:00;;;;;;;12.50;9.93;;;;;;;14.27;72.68;100644.38;5058095;28;20471;-69
2022/06/08 01:38:02;;;;;;;13.70;9.67;;;;;;;14.25;72.25;100633.88;5058838;28;20386;-69
2022/06/08 01:40:28;;;;;;;14.20;10.10;;;;;;;14.44;71.59;100639.88;5058739;28;20697;-70
2022/06/08 01:42:59;;;;;;;11.80;10.10;;;;;;;14.18;72.18;100632.22;5058664;28;20484;-69
2022/06/08 01:45:58;;;;;;;13.77;10.10;;;;;;;14.20;71.79;100634.81;5058878;28;20586;-70
2022/06/08 01:48:47;;;;;;;11.13;9.93;;;;;;;14.19;71.67;100633.06;5058674;28;20469;-71
2022/06/08 01:51:19;;;;;;;10.17;9.17;;;;;;;14.23;72.01;100625.16;5057850;28;20480;-70
2022/06/08 01:53:53;;;;;;;15.77;10.50;;;;;;;14.30;71.79;100624.25;5058379;28;20513;-70
2022/06/08 01:56:26;;;;;;;12.20;9.60;;;;;;;14.11;71.90;100620.88;5058402;28;20404;-70
2022/06/08 01:59:03;;;;;;;10.70;9.60;;;;;;;14.01;71.96;100619.19;5057540;28;20503;-70
2022/06/08 02:01:49;;;;;;;11.70;10.50;;;;;;;14.02;72.48;100614.81;5058315;28;20706;-70
2022/06/08 02:04:17;;;;;;;10.40;9.50;;;;;;;14.34;71.34;100618.97;5057552;28;20693;-70
2022/06/08 02:06:58;;;;;;;11.70;9.67;;;;;;;13.97;72.45;100613.09;5058319;28;20395;-70
2022/06/08 02:09:32;;;;;;;13.10;10.23;;;;;;;14.19;71.80;100607.69;5058289;28;20397;-70
2022/06/08 02:12:06;;;;;;;11.20;9.87;;;;;;;14.33;71.16;100602.38;5057490;28;20397;-70
2022/06/08 02:14:36;;;;;;;11.63;10.50;;;;;;;14.14;71.74;100604.28;5057843;28;20479;-69
2022/06/08 02:17:10;;;;;;;12.63;9.93;;;;;;;13.86;72.88;100608.81;5057041;28;20496;-70
2022/06/08 02:19:43;;;;;;;12.70;10.43;;;;;;;14.00;72.62;100601.72;5057948;28;20469;-70
2022/06/08 02:22:14;;;;;;;15.13;10.83;;;;;;;14.08;72.24;100594.66;5057270;28;20398;-70
2022/06/08 02:24:46;;;;;;;14.57;11.30;;;;;;;14.02;72.44;100592.13;5057351;28;20387;-69
2022/06/08 02:27:19;;;;;;;13.50;10.13;;;;;;;14.10;71.71;100600.78;5040740;28;20438;-70
2022/06/08 02:29:53;;;;;;;11.80;10.60;;;;;;;13.88;72.29;100607.03;5057342;28;20420;-70
2022/06/08 02:35:14;;;;;;;12.03;10.40;;;;;;;14.03;72.31;100591.25;5057401;28;20521;-70
2022/06/08 02:37:42;;;;;;;12.67;10.63;;;;;;;13.89;72.94;100588.69;5057210;28;20399;-70
2022/06/08 02:40:17;;;;;;;12.03;10.67;;;;;;;13.54;73.13;100596.75;5061312;28;20416;-70
2022/06/08 02:42:49;;;;;;;12.07;10.87;;;;;;;13.76;73.04;100593.16;5063754;28;20440;-70
2022/06/08 02:45:22;;;;;;;13.30;11.80;;;;;;;13.90;72.76;100587.81;5063832;28;20412;-70
2022/06/08 02:47:50;;;;;;;14.13;10.70;;;;;;;13.79;72.91;100587.88;5063965;28;20776;-70
2022/06/08 02:50:22;;;;;;;13.53;11.00;;;;;;;14.16;71.95;100592.00;5063649;28;20382;-69
2022/06/08 02:52:49;;;;;;;12.17;11.03;;;;;;;13.87;72.46;100584.34;5064426;28;20421;-70
2022/06/08 02:55:43;;;;;;;12.93;10.50;;;;;;;13.95;72.96;100586.03;5064470;28;20481;-70
2022/06/08 02:58:19;;;;;;;13.83;12.10;;;;;;;14.13;71.95;100582.41;5061942;28;20423;-69
2022/06/08 03:01:03;;;;;;;12.27;10.97;;;;;;;14.26;71.51;100584.94;5064427;28;20783;-70
2022/06/08 03:03:42;;;;;;;12.73;11.43;;;;;;;14.14;71.17;100589.41;5063529;28;20394;-70
2022/06/08 03:06:11;;;;;;;12.90;11.37;;;;;;;14.24;71.30;100591.94;5063735;28;20390;-69
2022/06/08 03:08:40;;;;;;;15.20;11.70;;;;;;;14.21;71.21;100584.13;5063617;28;20510;-70
2022/06/08 03:11:07;;;;;;;13.13;11.43;;;;;;;13.82;73.00;100587.84;5063608;28;20684;-69
2022/06/08 03:13:49;;;;;;;16.83;11.97;;;;;;;14.27;72.64;100584.06;5063756;28;20426;-70
2022/06/08 03:16:33;;;;;;;14.13;11.80;;;;;;;14.31;71.33;100591.00;5063275;28;20820;-71
2022/06/08 03:18:59;;;;;;;14.30;10.60;;;;;;;14.21;72.61;100589.38;5063756;28;20422;-70
2022/06/08 03:21:25;;;;;;;18.23;11.77;;;;;;;14.16;71.96;100586.75;5063335;28;20398;-70
2022/06/08 03:23:51;;;;;;;16.87;11.83;;;;;;;14.13;72.68;100592.03;5063978;28;20193;-70
2022/06/08 03:26:18;;;;;;;13.10;11.70;;;;;;;14.41;71.92;100591.78;5064517;28;20484;-69
2022/06/08 03:28:44;;;;;;;12.97;11.67;;;;;;;14.65;71.11;100589.00;5064133;28;20386;-69
2022/06/08 03:31:10;;;;;;;13.03;11.00;;;;;;;14.34;71.66;100584.88;5064225;28;20420;-69
2022/06/08 03:33:35;;;;;;;12.87;11.40;;;;;;;14.57;71.03;100589.91;5064180;28;20553;-69
2022/06/08 03:36:01;;;;;;;12.33;11.13;;;;;;;14.17;72.26;100578.03;5064135;28;20180;-69
2022/06/08 03:38:27;;;;;;;12.17;10.97;;;;;;;15.38;69.93;100580.28;5063987;28;20180;-70
2022/06/08 03:40:55;;;;;;;14.00;10.40;;;;;;;16.89;64.12;100576.22;5064544;28;20756;-69
2022/06/08 03:43:20;;;;;;;11.10;9.60;;;;;;;17.93;60.86;100567.91;5063156;28;20201;-69
2022/06/08 03:45:50;;;;;;;9.53;8.20;;;;;;;17.16;60.92;100574.84;5063970;28;20494;-70
2022/06/08 03:48:17;;;;;;;8.57;7.47;;;;;;;17.30;61.05;100575.41;5063764;28;20166;-69
2022/06/08 03:50:43;;;;;;;8.77;7.43;;;;;;;17.44;59.96;100567.22;5062670;28;20843;-70
2022/06/08 03:53:13;;;;;;;8.33;7.47;;;;;;;18.37;58.15;100567.69;5059925;28;20412;-70
2022/06/08 03:55:39;;;;;;;7.70;7.00;;;;;;;18.07;58.30;100562.28;5060408;28;20408;-69
2022/06/08 03:58:06;;;;;;;7.00;6.40;;;;;;;18.08;58.45;100560.53;5059991;28;20717;-70
2022/06/08 04:00:31;;;;;;;8.33;7.33;;;;;;;17.67;59.56;100563.19;5060473;28;20174;-70
2022/06/08 04:02:57;;;;;;;7.27;6.47;;;;;;;18.29;57.74;100557.38;5061060;28;20412;-69
2022/06/08 04:05:23;;;;;;;7.60;6.80;;;;;;;18.95;56.17;100557.38;5060626;28;20167;-69
2022/06/08 04:07:48;;;;;;;10.80;6.87;;;;;;;19.23;55.47;100555.72;5059732;28;20420;-69
2022/06/08 04:10:14;;;;;;;9.10;7.00;;;;;;;18.51;56.72;100562.09;5060078;28;20512;-70
2022/06/08 04:12:39;;;;;;;8.63;7.20;;;;;;;19.52;53.59;100561.03;5060299;28;20182;-70
2022/06/08 04:15:05;;;;;;;8.47;7.07;;;;;;;19.37;54.79;100568.53;5060258;28;20209;-70
2022/06/08 04:17:31;;;;;;;9.20;6.97;;;;;;;19.26;55.01;100571.50;5060165;28;20240;-70
2022/06/08 04:19:56;;;;;;;7.13;6.40;;;;;;;19.55;53.52;100567.13;5060236;28;20416;-70
2022/06/08 04:22:23;;;;;;;7.20;6.50;;;;;;;20.24;52.63;100566.72;5060344;28;20166;-70
2022/06/08 04:24:49;;;;;;;7.80;7.03;;;;;;;20.65;50.32;100573.25;5060132;28;20531;-70
2022/06/08 04:27:15;;;;;;;8.13;7.33;;;;;;;22.48;46.27;100551.22;5060049;28;20436;-70
2022/06/08 04:29:41;;;;;;;9.70;7.70;;;;;;;22.17;46.34;100552.50;5059597;28;20474;-70
2022/06/08 04:32:09;;;;;;;7.80;6.87;;;;;;;21.69;47.33;100553.59;5060048;28;20174;-70
2022/06/08 04:34:36;;;;;;;7.60;6.80;;;;;;;21.78;47.12;100550.53;5059935;28;20460;-70
2022/06/08 04:37:02;;;;;;;11.93;7.03;;;;;;;21.86;47.12;100551.09;5060267;28;20487;-70
2022/06/08 04:39:27;;;;;;;10.63;7.43;;;;;;;21.74;47.83;100556.91;5059823;28;20422;-70
2022/06/08 04:41:52;;;;;;;8.90;7.47;;;;;;;22.62;45.46;100558.59;5059838;28;20185;-70
2022/06/08 04:44:18;;;;;;;9.00;7.83;;;;;;;22.87;45.39;100562.84;5060036;28;20166;-70
2022/06/08 04:46:43;;;;;;;9.33;8.17;;;;;;;22.27;46.35;100574.25;5059871;28;20265;-70
2022/06/08 04:49:09;;;;;;;8.90;7.20;;;;;;;23.70;43.39;100574.97;5059733;28;20185;-70
2022/06/08 04:51:34;;;;;;;10.57;7.30;;;;;;;23.56;43.42;100582.78;5060025;28;20539;-70
2022/06/08 04:54:00;;;;;;;8.33;7.17;;;;;;;22.74;44.60;100574.94;5059455;28;20210;-70
2022/06/08 04:56:26;;;;;;;10.40;7.47;;;;;;;22.96;44.75;100572.19;5058892;28;20169;-69
2022/06/08 04:58:54;;;;;;;9.90;8.80;;;;;;;23.87;42.65;100571.50;5059929;28;20680;-69
2022/06/08 05:01:20;;;;;;;9.00;7.60;;;;;;;22.17;46.29;100571.06;5059380;28;20213;-69
2022/06/08 05:03:45;;;;;;;10.20;8.70;;;;;;;24.23;41.83;100566.28;5058726;28;20862;-69
2022/06/08 05:06:11;;;;;;;9.80;8.37;;;;;;;24.77;40.25;100561.72;5059668;28;20408;-69
2022/06/08 05:08:36;;;;;;;9.07;8.30;;;;;;;22.91;43.99;100567.09;5059311;28;20173;-69
2022/06/08 05:11:04;;;;;;;10.30;8.80;;;;;;;22.47;45.61;100565.44;5059242;28;20197;-69
2022/06/08 05:13:30;;;;;;;8.90;8.10;;;;;;;22.32;46.00;100577.53;5058651;28;20169;-69
2022/06/08 05:15:55;;;;;;;12.33;8.53;;;;;;;22.42;46.21;100574.53;5059167;28;20436;-69
2022/06/08 05:18:22;;;;;;;9.63;8.60;;;;;;;21.55;47.78;100577.97;5059141;28;20221;-69
2022/06/08 05:20:48;;;;;;;8.70;8.00;;;;;;;21.49;47.84;100573.75;5059646;28;20260;-70
2022/06/08 05:23:20;;;;;;;9.60;8.70;;;;;;;20.72;50.71;100581.88;5058204;28;20550;-70
2022/06/08 05:25:46;;;;;;;9.83;8.83;;;;;;;20.67;50.43;100578.50;5059091;28;20404;-71
2022/06/08 05:28:13;;;;;;;10.67;9.57;;;;;;;19.75;52.63;100585.88;5059393;28;20499;-70
2022/06/08 05:30:39;;;;;;;10.53;9.63;;;;;;;19.67;53.25;100582.59;5058905;28;20173;-69
2022/06/08 05:33:05;;;;;;;10.23;9.23;;;;;;;20.22;52.10;100585.31;5057964;28;20515;-70
2022/06/08 05:35:30;;;;;;;10.10;8.93;;;;;;;22.18;48.01;100570.16;5059299;28;20547;-70
2022/06/08 05:37:56;;;;;;;10.50;9.27;;;;;;;21.15;50.13;100575.03;5058111;28;20408;-69
2022/06/08 05:40:22;;;;;;;12.47;9.43;;;;;;;20.75;50.97;100578.28;5058714;28;20177;-70
2022/06/08 05:42:48;;;;;;;10.00;8.90;;;;;;;20.28;51.75;100584.25;5059009;28;20444;-71
2022/06/08 05:45:21;;;;;;;11.47;9.50;;;;;;;20.03;52.62;100580.59;5058517;28;20415;-71
2022/06/08 05:47:47;;;;;;;11.80;9.10;;;;;;;19.32;54.44;100592.44;5058482;28;20212;-70
2022/06/08 05:50:12;;;;;;;10.27;9.07;;;;;;;19.04;55.05;100587.09;5058786;28;20828;-70
2022/06/08 05:52:38;;;;;;;11.97;9.20;;;;;;;19.30;54.53;100589.88;5058184;28;20177;-69
2022/06/08 05:55:04;;;;;;;17.93;8.87;;;;;;;19.48;54.73;100577.91;5058188;28;20280;-70
2022/06/08 05:57:29;;;;;;;15.03;9.93;;;;;;;18.66;56.08;100582.78;5058829;28;20173;-71
2022/06/08 05:59:55;;;;;;;10.70;9.23;;;;;;;18.49;56.87;100575.31;5057566;28;20494;-70
2022/06/08 06:02:20;;;;;;;15.20;8.87;;;;;;;18.77;56.60;100574.59;5058181;28;20181;-70
2022/06/08 06:04:45;;;;;;;10.60;9.50;;;;;;;19.08;55.64;100576.41;5058910;28;20253;-71
2022/06/08 06:07:11;;;;;;;12.07;8.00;;;;;;;20.67;51.14;100574.09;5058485;28;20169;-70
2022/06/08 06:09:38;;;;;;;9.17;8.17;;;;;;;20.17;51.09;100574.00;5045107;28;20174;-70
2022/06/08 06:12:04;;;;;;;9.37;8.10;;;;;;;18.92;54.40;100583.03;5037812;28;20421;-69
2022/06/08 06:14:29;;;;;;;11.00;9.47;;;;;;;19.23;53.36;100566.28;5037123;28;20472;-69
2022/06/08 06:16:55;;;;;;;8.73;7.83;;;;;;;20.46;51.48;100567.75;5037826;28;20533;-70
2022/06/08 06:19:20;;;;;;;12.57;9.13;;;;;;;21.01;50.21;100564.97;5038427;28;20532;-70
2022/06/08 06:21:46;;;;;;;9.03;7.90;;;;;;;20.60;50.11;100571.69;5038032;28;20228;-70
2022/06/08 06:24:11;;;;;;;12.43;8.87;;;;;;;20.72;50.38;100567.78;5037982;28;20257;-70
2022/06/08 06:26:36;;;;;;;8.33;7.33;;;;;;;19.11;54.42;100576.31;5038405;28;20257;-70
2022/06/08 06:29:02;;;;;;;8.17;7.37;;;;;;;18.91;55.25;100574.22;5037984;28;20174;-70
2022/06/08 06:31:41;;;;;;;9.90;7.87;;;;;;;19.23;54.69;100566.28;5037654;28;20450;-70
2022/06/08 06:34:09;;;;;;;10.37;7.70;;;;;;;18.40;57.17;100562.38;5037566;28;20202;-70
2022/06/08 06:36:34;;;;;;;10.93;8.70;;;;;;;19.01;55.55;100569.53;5037195;28;20417;-70
2022/06/08 06:38:59;;;;;;;16.20;9.20;;;;;;;18.99;55.28;100574.88;5038525;28;20483;-70
2022/06/08 06:41:26;;;;;;;8.30;7.60;;;;;;;18.81;56.22;100578.03;5037881;28;20182;-70
2022/06/08 06:43:52;;;;;;;10.83;9.83;;;;;;;17.96;58.97;100582.78;5037614;28;20184;-69
2022/06/08 06:46:18;;;;;;;10.50;9.40;;;;;;;17.13;62.12;100581.03;5038107;28;20503;-70
2022/06/08 06:48:43;;;;;;;10.70;9.47;;;;;;;17.39;61.36;100576.97;5030893;28;20513;-70
2022/06/08 06:51:10;;;;;;;13.20;10.03;;;;;;;18.10;59.97;100579.81;5031685;28;20186;-69
2022/06/08 06:53:35;;;;;;;13.93;11.43;;;;;;;17.47;62.33;100579.47;5037238;28;20221;-70
2022/06/08 06:56:01;;;;;;;17.27;10.30;;;;;;;17.54;61.28;100578.41;5025208;28;20512;-70
2022/06/08 06:58:26;;;;;;;11.10;9.73;;;;;;;18.14;60.47;100584.09;5037225;28;20178;-70
2022/06/08 07:00:53;;;;;;;11.03;9.43;;;;;;;18.89;58.10;100585.75;5037718;28;20178;-70
2022/06/08 07:03:18;;;;;;;11.07;9.70;;;;;;;18.66;58.73;100598.63;5037472;28;20185;-69
2022/06/08 07:05:44;;;;;;;14.70;10.60;;;;;;;18.93;57.93;100595.31;5035305;28;20846;-68
2022/06/08 07:08:09;;;;;;;9.40;8.40;;;;;;;19.01;57.03;100598.59;5037025;28;20272;-68
2022/06/08 07:10:36;;;;;;;13.03;9.17;;;;;;;19.53;55.09;100597.09;5051487;28;20601;-68
2022/06/08 07:13:03;;;;;;;11.90;8.80;;;;;;;18.61;57.38;100603.16;5040252;28;20316;-69
2022/06/08 07:15:28;;;;;;;10.40;9.40;;;;;;;19.33;56.11;100592.41;5045254;28;20562;-69
2022/06/08 07:17:54;;;;;;;10.23;9.00;;;;;;;19.18;56.41;100595.50;5048256;28;20783;-69
2022/06/08 07:20:20;;;;;;;10.67;8.80;;;;;;;18.90;57.54;100601.53;5044838;28;20195;-69
2022/06/08 07:22:46;;;;;;;10.13;9.07;;;;;;;18.99;57.22;100598.66;5039003;28;20482;-70
2022/06/08 07:25:13;;;;;;;10.33;8.17;;;;;;;19.04;57.54;100597.66;5035497;28;20185;-72
2022/06/08 07:27:39;;;;;;;12.23;9.40;;;;;;;19.15;56.93;100596.44;5035829;28;20182;-72
2022/06/08 07:30:05;;;;;;;12.53;8.70;;;;;;;18.32;59.05;100594.22;5039969;28;20659;-73
2022/06/08 07:32:31;;;;;;;10.57;9.43;;;;;;;18.64;58.05;100589.00;5028313;28;20441;-72
2022/06/08 07:34:56;;;;;;;10.53;9.43;;;;;;;18.88;58.08;100591.91;5039324;28;20468;-72
2022/06/08 07:37:23;;;;;;;9.90;8.90;;;;;;;18.65;58.09;100585.47;5025383;28;20603;-73
2022/06/08 07:39:49;;;;;;;11.63;9.77;;;;;;;18.81;57.57;100588.59;5030528;28;20524;-72
2022/06/08 07:42:14;;;;;;;11.13;10.00;;;;;;;18.84;57.62;100581.41;5039520;28;20417;-74
2022/06/08 07:44:40;;;;;;;12.90;9.63;;;;;;;18.35;59.20;100572.16;5040196;28;20197;-75
2022/06/08 07:47:05;;;;;;;10.50;8.80;;;;;;;19.03;57.29;100567.75;5024955;28;20183;-70
2022/06/08 07:49:36;;;;;;;9.53;8.53;;;;;;;19.26;56.60;100566.22;5021372;28;20190;-70
2022/06/08 07:52:10;;;;;;;11.70;8.63;;;;;;;19.33;57.03;100570.41;5020655;28;20243;-71
2022/06/08 07:54:36;;;;;;;10.27;8.30;;;;;;;19.61;55.36;100572.22;5021801;28;20457;-71
2022/06/08 07:57:03;;;;;;;10.13;8.50;;;;;;;19.22;56.43;100570.72;5039905;28;20409;-73
2022/06/08 07:59:30;;;;;;;11.40;8.73;;;;;;;19.16;57.78;100569.13;5042051;28;20431;-72
2022/06/08 08:01:56;;;;;;;9.80;8.43;;;;;;;19.19;57.03;100560.25;5038952;28;20443;-74
2022/06/08 08:04:21;;;;;;;13.87;9.37;;;;;;;19.09;57.02;100557.00;5040123;28;20433;-75
2022/06/08 08:06:47;;;;;;;13.87;9.70;;;;;;;18.36;58.19;100558.06;5040329;28;20188;-73
2022/06/08 08:09:17;;;;;;;10.33;9.10;;;;;;;18.67;57.61;100544.91;5040452;28;20166;-73
2022/06/08 08:11:46;;;;;;;13.40;9.33;;;;;;;18.93;57.19;100543.38;5040808;28;20429;-71
2022/06/08 08:14:13;;;;;;;11.50;8.70;;;;;;;19.45;56.78;100540.09;5040161;28;20460;-72
2022/06/08 08:16:40;;;;;;;11.30;9.83;;;;;;;19.48;56.70;100532.94;5040303;28;20457;-73
2022/06/08 08:19:05;;;;;;;11.83;10.07;;;;;;;19.42;57.82;100535.78;5040530;28;20409;-74
2022/06/08 08:21:32;;;;;;;13.10;9.90;;;;;;;20.15;55.40;100534.34;5039998;28;20419;-74
2022/06/08 08:23:59;;;;;;;13.70;8.80;;;;;;;19.84;56.61;100538.00;5040034;28;20162;-72
2022/06/08 08:26:25;;;;;;;12.87;9.20;;;;;;;21.42;51.61;100515.69;5040393;28;20425;-71
2022/06/08 08:28:50;;;;;;;10.67;9.30;;;;;;;22.10;50.06;100524.47;5040143;28;20482;-74
2022/06/08 08:31:15;;;;;;;9.70;8.37;;;;;;;21.01;51.74;100522.56;5040302;28;20166;-75
2022/06/08 08:33:41;;;;;;;10.40;8.60;;;;;;;21.98;49.54;100512.56;5039551;28;20257;-75
2022/06/08 08:36:06;;;;;;;10.77;8.53;;;;;;;22.15;48.30;100511.00;5040293;28;20166;-71
2022/06/08 08:38:32;;;;;;;10.30;8.53;;;;;;;23.45;46.23;100500.81;5038605;28;20177;-71
2022/06/08 08:41:00;;;;;;;9.30;8.40;;;;;;;24.10;43.58;100505.66;5040135;28;20524;-73
2022/06/08 08:43:31;;;;;;;8.70;7.70;;;;;;;25.09;41.63;100483.63;5039088;28;20439;-73
2022/06/08 08:46:25;;;;;;;9.13;7.33;;;;;;;25.77;40.26;100480.66;5039790;28;20508;-72
2022/06/08 08:49:11;;;;;;;10.03;7.73;;;;;;;25.65;40.28;100476.03;5038809;28;20409;-73
2022/06/08 08:51:42;;;;;;;10.50;8.60;;;;;;;25.36;41.71;100470.56;5039814;28;20416;-74
2022/06/08 08:54:20;;;;;;;12.40;8.00;;;;;;;25.93;39.64;100467.28;5039015;28;20471;-75
2022/06/08 08:56:45;;;;;;;9.27;8.37;;;;;;;26.65;37.71;100470.06;5039596;28;20416;-77
2022/06/08 08:59:16;;;;;;;8.00;7.20;;;;;;;25.03;41.10;100474.13;5039379;28;20409;-76
2022/06/08 09:01:44;;;;;;;7.77;7.07;;;;;;;26.00;39.36;100462.44;5038729;28;20602;-77
2022/06/08 09:04:24;;;;;;;8.00;7.17;;;;;;;25.60;38.80;100457.63;5038698;28;20450;-75
2022/06/08 09:06:50;;;;;;;8.77;7.97;;;;;;;24.97;41.49;100453.16;5038507;28;20435;-75
2022/06/08 09:09:23;;;;;;;10.00;7.80;;;;;;;23.99;42.50;100449.38;5039460;28;20684;-75
2022/06/08 09:11:49;;;;;;;11.10;7.87;;;;;;;26.46;39.04;100438.28;5038816;28;20417;-76
2022/06/08 09:14:17;;;;;;;10.43;8.40;;;;;;;27.09;37.75;100432.59;5038890;28;20786;-75
2022/06/08 09:16:45;;;;;;;8.47;7.60;;;;;;;25.46;40.16;100439.72;5038862;28;20492;-73
2022/06/08 09:19:31;;;;;;;9.40;8.60;;;;;;;24.91;41.88;100440.16;5038911;28;20417;-73
2022/06/08 09:22:03;;;;;;;9.27;8.40;;;;;;;25.37;40.92;100433.13;5039050;28;20454;-74
2022/06/08 09:24:34;;;;;;;9.03;8.10;;;;;;;26.88;38.28;100430.38;5038906;28;20417;-75
2022/06/08 09:27:27;;;;;;;9.30;8.30;;;;;;;27.24;37.09;100423.59;5038027;28;20449;-74
2022/06/08 09:29:59;;;;;;;9.47;8.57;;;;;;;26.53;37.22;100425.41;5035289;28;20869;-74
2022/06/08 09:32:30;;;;;;;10.37;8.90;;;;;;;27.59;36.76;100425.78;5038695;28;20814;-70
2022/06/08 09:34:59;;;;;;;9.50;8.60;;;;;;;28.04;35.44;100417.44;5038632;28;20461;-71
2022/06/08 09:37:26;;;;;;;10.10;9.10;;;;;;;27.89;36.74;100408.59;5038605;28;20423;-71
2022/06/08 09:39:54;;;;;;;9.10;8.20;;;;;;;25.54;40.79;100420.59;5038147;28;20677;-72
2022/06/08 09:42:25;;;;;;;10.13;8.93;;;;;;;27.62;36.40;100428.25;5038323;28;20467;-71
2022/06/08 09:45:01;;;;;;;11.10;10.20;;;;;;;26.41;38.38;100421.66;5038290;28;20416;-74
2022/06/08 09:53:52;;;;;;;10.40;9.30;;;;;;;25.92;39.08;100421.97;5038411;28;20447;-72
2022/06/08 09:56:24;;;;;;;10.10;9.20;;;;;;;26.02;38.70;100425.78;5038560;28;20413;-73
2022/06/08 09:59:25;;;;;;;12.77;9.60;;;;;;;25.53;40.57;100418.88;5038539;28;20413;-75
2022/06/08 10:02:02;;;;;;;11.17;10.27;;;;;;;25.57;40.39;100416.91;5037449;28;20410;-73
2022/06/08 10:04:39;;;;;;;11.27;10.30;;;;;;;22.61;45.75;100429.34;5037723;28;20556;-74
2022/06/08 10:07:28;;;;;;;13.07;12.07;;;;;;;23.15;45.09;100421.56;5038520;28;20498;-72
2022/06/08 10:10:23;;;;;;;12.30;11.13;;;;;;;23.68;44.83;100416.34;5037517;28;20454;-73
2022/06/08 10:13:01;;;;;;;12.60;11.50;;;;;;;23.69;45.03;100424.22;5038119;28;20445;-70
2022/06/08 10:15:32;;;;;;;11.23;10.20;;;;;;;22.98;46.66;100417.00;5038157;28;20457;-73
2022/06/08 10:18:15;;;;;;;12.70;11.03;;;;;;;21.40;50.26;100428.25;5036907;28;20892;-70
2022/06/08 10:20:46;;;;;;;11.73;10.73;;;;;;;22.58;48.42;100423.31;5037921;28;20504;-71
2022/06/08 10:23:18;;;;;;;13.23;11.93;;;;;;;23.07;46.84;100418.38;5037274;28;20433;-73
2022/06/08 10:25:56;;;;;;;12.10;11.07;;;;;;;22.96;47.78;100413.56;5037423;28;20449;-73
2022/06/08 10:28:28;;;;;;;12.90;11.70;;;;;;;22.78;47.40;100404.63;5036869;28;20432;-74
2022/06/08 10:30:58;;;;;;;12.67;11.53;;;;;;;23.48;46.23;100407.53;5049526;28;20432;-73
2022/06/08 10:33:40;;;;;;;12.87;11.73;;;;;;;23.65;45.28;100400.50;5057143;28;20438;-74
2022/06/08 10:36:08;;;;;;;13.17;11.93;;;;;;;23.90;45.02;100400.16;5017669;28;20433;-73
2022/06/08 10:38:37;;;;;;;13.00;11.70;;;;;;;23.85;44.67;100400.34;5033501;28;20722;-74
2022/06/08 10:42:39;;;;;;;11.90;10.90;;;;;;;25.83;41.56;100394.88;5033044;28;20440;-74
2022/06/08 10:43:58;;;;;;;13.20;11.90;;;;;;;26.07;40.60;100389.00;5043983;28;20420;-73
2022/06/08 10:46:48;;;;;;;11.63;10.63;;;;;;;26.09;40.20;100392.47;5046611;28;20421;-74
2022/06/08 10:49:40;;;;;;;11.40;10.20;;;;;;;25.28;41.79;100392.75;5037144;28;20456;-74
2022/06/08 10:52:15;;;;;;;10.67;9.77;;;;;;;25.61;41.36;100386.41;5026728;28;20891;-72
2022/06/08 10:54:54;;;;;;;10.17;9.37;;;;;;;25.42;42.65;100387.47;5031020;28;20471;-74
2022/06/08 10:57:42;;;;;;;11.93;10.70;;;;;;;26.29;39.75;100387.69;5043166;28;20430;-72
2022/06/08 11:00:19;;;;;;;9.73;9.03;;;;;;;25.74;40.66;100386.56;5045351;28;20446;-72
2022/06/08 11:03:01;;;;;;;11.40;10.50;;;;;;;25.08;42.44;100391.22;5047448;28;20416;-73
2022/06/08 11:05:42;;;;;;;11.10;10.30;;;;;;;25.77;40.76;100386.34;5040598;28;20415;-74
2022/06/08 11:08:07;;;;;;;11.63;10.53;;;;;;;23.48;45.20;100399.56;5040284;28;20841;-74
2022/06/08 11:10:52;;;;;;;12.63;9.80;;;;;;;25.19;42.06;100389.66;5039868;28;20456;-74
2022/06/08 11:13:24;;;;;;;10.83;9.93;;;;;;;25.43;40.86;100385.69;5039647;28;20548;-72
2022/06/08 11:15:52;;;;;;;10.37;9.37;;;;;;;26.33;39.64;100384.75;5030133;28;20478;-73
2022/06/08 11:18:24;;;;;;;9.70;8.70;;;;;;;26.22;39.47;100384.53;5039527;28;20476;-71
2022/06/08 11:21:06;;;;;;;8.10;7.33;;;;;;;25.19;41.27;100389.66;5040546;28;20801;-72
2022/06/08 11:23:43;;;;;;;9.40;8.50;;;;;;;24.91;41.46;100386.81;5041402;28;20409;-72
2022/06/08 11:26:25;;;;;;;10.43;9.53;;;;;;;24.33;42.85;100387.25;5028635;28;20412;-74
2022/06/08 11:28:56;;;;;;;9.33;8.53;;;;;;;24.32;42.98;100390.00;5047028;28;20420;-72
2022/06/08 11:31:25;;;;;;;9.00;8.20;;;;;;;24.80;41.45;100382.97;5040303;28;20444;-71
2022/06/08 11:34:03;;;;;;;9.03;8.23;;;;;;;24.76;41.45;100388.53;5028671;28;20886;-74
2022/06/08 11:37:06;;;;;;;9.50;8.73;;;;;;;24.13;42.54;100390.97;5026246;28;20678;-73
2022/06/08 11:39:37;;;;;;;8.10;7.50;;;;;;;25.40;40.42;100389.38;5039671;28;20405;-74